sensor_id;sensor_type;location;lat;lon;timestamp;pressure;altitude;pressure_sealevel;temperature;humidity
70546;BME280;58098;51.680;5.134;2023-07-13T00:02:08;101464.25;;;15.16;100.00
70546;BME280;58098;51.680;5.134;2023-07-13T00:04:34;101463.84;;;15.11;100.00
70546;BME280;58098;51.680;5.134;2023-07-13T00:06:59;101468.13;;;15.12;100.00
70546;BME280;58098;51.680;5.134;2023-07-13T00:09:25;101465.09;;;15.07;100.00
70546;BME280;58098;51.680;5.134;2023-07-13T00:11:55;101476.03;;;15.12;100.00
70546;BME280;58098;51.680;5.134;2023-07-13T00:14:21;101476.03;;;15.12;100.00
70546;BME280;58098;51.680;5.134;2023-07-13T00:16:47;101477.28;;;15.08;100.00
70546;BME280;58098;51.680;5.134;2023-07-13T00:19:14;101470.50;;;15.06;100.00
70546;BME280;58098;51.680;5.134;2023-07-13T00:21:40;101484.19;;;15.09;100.00
70546;BME280;58098;51.680;5.134;2023-07-13T00:24:08;101459.94;;;14.96;100.00
70546;BME280;58098;51.680;5.134;2023-07-13T00:26:38;101483.06;;;15.02;100.00
70546;BME280;58098;51.680;5.134;2023-07-13T00:29:04;101471.66;;;14.92;100.00
70546;BME280;58098;51.680;5.134;2023-07-13T00:31:34;101471.66;;;14.92;100.00
70546;BME280;58098;51.680;5.134;2023-07-13T00:33:59;101475.09;;;14.83;100.00
70546;BME280;58098;51.680;5.134;2023-07-13T00:36:25;101472.72;;;14.80;100.00
70546;BME280;58098;51.680;5.134;2023-07-13T00:38:51;101488.09;;;14.85;100.00
70546;BME280;58098;51.680;5.134;2023-07-13T00:41:16;101466.28;;;14.84;100.00
70546;BME280;58098;51.680;5.134;2023-07-13T00:43:42;101474.16;;;14.84;100.00
70546;BME280;58098;51.680;5.134;2023-07-13T00:48:38;101477.06;;;14.91;100.00
70546;BME280;58098;51.680;5.134;2023-07-13T00:51:04;101452.56;;;14.81;100.00
70546;BME280;58098;51.680;5.134;2023-07-13T00:53:30;101473.59;;;14.90;100.00
70546;BME280;58098;51.680;5.134;2023-07-13T00:55:57;101478.56;;;14.84;100.00
70546;BME280;58098;51.680;5.134;2023-07-13T00:58:25;101480.34;;;14.83;100.00
70546;BME280;58098;51.680;5.134;2023-07-13T01:00:51;101484.47;;;14.76;100.00
70546;BME280;58098;51.680;5.134;2023-07-13T01:03:18;101496.78;;;14.76;100.00
70546;BME280;58098;51.680;5.134;2023-07-13T01:05:47;101493.59;;;14.72;100.00
70546;BME280;58098;51.680;5.134;2023-07-13T01:08:14;101484.56;;;14.65;100.00
70546;BME280;58098;51.680;5.134;2023-07-13T01:10:39;101500.31;;;14.65;100.00
70546;BME280;58098;51.680;5.134;2023-07-13T01:13:10;101499.31;;;14.57;100.00
70546;BME280;58098;51.680;5.134;2023-07-13T01:15:39;101506.38;;;14.56;100.00
70546;BME280;58098;51.680;5.134;2023-07-13T01:18:21;101508.00;;;14.47;100.00
70546;BME280;58098;51.680;5.134;2023-07-13T01:20:52;101496.44;;;14.39;100.00
70546;BME280;58098;51.680;5.134;2023-07-13T01:23:18;101502.28;;;14.42;100.00
70546;BME280;58098;51.680;5.134;2023-07-13T01:25:44;101505.16;;;14.39;100.00
70546;BME280;58098;51.680;5.134;2023-07-13T01:28:10;101501.16;;;14.35;100.00
70546;BME280;58098;51.680;5.134;2023-07-13T01:30:36;101494.34;;;14.33;100.00
70546;BME280;58098;51.680;5.134;2023-07-13T01:33:03;101499.00;;;14.29;100.00
70546;BME280;58098;51.680;5.134;2023-07-13T01:35:29;101506.78;;;14.31;100.00
70546;BME280;58098;51.680;5.134;2023-07-13T01:37:54;101499.38;;;14.25;100.00
70546;BME280;58098;51.680;5.134;2023-07-13T01:40:20;101496.75;;;14.25;100.00
70546;BME280;58098;51.680;5.134;2023-07-13T01:42:46;101504.16;;;14.31;100.00
70546;BME280;58098;51.680;5.134;2023-07-13T01:45:11;101501.06;;;14.26;100.00
70546;BME280;58098;51.680;5.134;2023-07-13T01:47:37;101497.69;;;14.24;100.00
70546;BME280;58098;51.680;5.134;2023-07-13T01:50:03;101497.63;;;14.14;100.00
70546;BME280;58098;51.680;5.134;2023-07-13T01:52:29;101497.78;;;14.13;100.00
70546;BME280;58098;51.680;5.134;2023-07-13T01:54:54;101506.59;;;14.12;100.00
70546;BME280;58098;51.680;5.134;2023-07-13T01:57:20;101506.16;;;14.07;100.00
70546;BME280;58098;51.680;5.134;2023-07-13T01:59:45;101517.25;;;14.10;100.00
70546;BME280;58098;51.680;5.134;2023-07-13T02:02:11;101506.53;;;14.02;100.00
70546;BME280;58098;51.680;5.134;2023-07-13T02:04:36;101506.66;;;14.01;100.00
70546;BME280;58098;51.680;5.134;2023-07-13T02:07:02;101512.06;;;13.99;100.00
70546;BME280;58098;51.680;5.134;2023-07-13T02:09:27;101525.41;;;13.96;100.00
70546;BME280;58098;51.680;5.134;2023-07-13T02:11:52;101504.59;;;13.83;100.00
70546;BME280;58098;51.680;5.134;2023-07-13T02:14:18;101519.56;;;13.93;100.00
70546;BME280;58098;51.680;5.134;2023-07-13T02:16:43;101523.66;;;13.85;100.00
70546;BME280;58098;51.680;5.134;2023-07-13T02:19:09;101522.00;;;13.84;100.00
70546;BME280;58098;51.680;5.134;2023-07-13T02:21:34;101535.59;;;13.89;100.00
70546;BME280;58098;51.680;5.134;2023-07-13T02:24:00;101529.75;;;13.86;100.00
70546;BME280;58098;51.680;5.134;2023-07-13T02:26:26;101512.94;;;13.77;100.00
70546;BME280;58098;51.680;5.134;2023-07-13T02:28:51;101514.88;;;13.75;100.00
70546;BME280;58098;51.680;5.134;2023-07-13T02:31:17;101529.44;;;13.79;100.00
70546;BME280;58098;51.680;5.134;2023-07-13T02:33:43;101517.63;;;13.74;100.00
70546;BME280;58098;51.680;5.134;2023-07-13T02:36:09;101523.59;;;13.76;100.00
70546;BME280;58098;51.680;5.134;2023-07-13T02:38:35;101524.66;;;13.73;100.00
70546;BME280;58098;51.680;5.134;2023-07-13T02:41:05;101527.19;;;13.75;100.00
70546;BME280;58098;51.680;5.134;2023-07-13T02:43:32;101519.19;;;13.65;100.00
70546;BME280;58098;51.680;5.134;2023-07-13T02:45:59;101528.50;;;13.69;100.00
70546;BME280;58098;51.680;5.134;2023-07-13T02:48:29;101511.69;;;13.61;100.00
70546;BME280;58098;51.680;5.134;2023-07-13T02:50:55;101527.91;;;13.66;100.00
70546;BME280;58098;51.680;5.134;2023-07-13T02:53:20;101525.41;;;13.64;100.00
70546;BME280;58098;51.680;5.134;2023-07-13T02:55:46;101520.41;;;13.61;100.00
70546;BME280;58098;51.680;5.134;2023-07-13T02:58:13;101520.28;;;13.63;100.00
70546;BME280;58098;51.680;5.134;2023-07-13T03:00:42;101515.41;;;13.58;100.00
70546;BME280;58098;51.680;5.134;2023-07-13T03:03:08;101521.84;;;13.54;100.00
70546;BME280;58098;51.680;5.134;2023-07-13T03:05:34;101512.59;;;13.50;100.00
70546;BME280;58098;51.680;5.134;2023-07-13T03:07:59;101528.88;;;13.54;100.00
70546;BME280;58098;51.680;5.134;2023-07-13T03:10:24;101533.91;;;13.57;100.00
70546;BME280;58098;51.680;5.134;2023-07-13T03:12:50;101526.06;;;13.46;100.00
70546;BME280;58098;51.680;5.134;2023-07-13T03:15:16;101524.53;;;13.43;100.00
70546;BME280;58098;51.680;5.134;2023-07-13T03:17:41;101529.03;;;13.41;100.00
70546;BME280;58098;51.680;5.134;2023-07-13T03:20:07;101532.16;;;13.35;100.00
70546;BME280;58098;51.680;5.134;2023-07-13T03:22:33;101539.66;;;13.40;100.00
70546;BME280;58098;51.680;5.134;2023-07-13T03:24:58;101531.44;;;13.33;100.00
70546;BME280;58098;51.680;5.134;2023-07-13T03:27:23;101521.44;;;13.27;100.00
70546;BME280;58098;51.680;5.134;2023-07-13T03:29:49;101543.34;;;13.37;100.00
70546;BME280;58098;51.680;5.134;2023-07-13T03:32:14;101536.69;;;13.33;100.00
70546;BME280;58098;51.680;5.134;2023-07-13T03:34:40;101531.91;;;13.27;100.00
70546;BME280;58098;51.680;5.134;2023-07-13T03:37:05;101529.31;;;13.27;100.00
70546;BME280;58098;51.680;5.134;2023-07-13T03:39:31;101539.78;;;13.27;100.00
70546;BME280;58098;51.680;5.134;2023-07-13T03:41:56;101554.34;;;13.31;100.00
70546;BME280;58098;51.680;5.134;2023-07-13T03:44:21;101540.03;;;13.24;100.00
70546;BME280;58098;51.680;5.134;2023-07-13T03:46:47;101555.75;;;13.35;100.00
70546;BME280;58098;51.680;5.134;2023-07-13T03:49:12;101558.47;;;13.34;100.00
70546;BME280;58098;51.680;5.134;2023-07-13T03:51:38;101552.16;;;13.36;100.00
70546;BME280;58098;51.680;5.134;2023-07-13T03:54:04;101552.16;;;13.36;100.00
70546;BME280;58098;51.680;5.134;2023-07-13T03:56:30;101549.09;;;13.31;100.00
70546;BME280;58098;51.680;5.134;2023-07-13T03:58:56;101552.16;;;13.36;100.00
70546;BME280;58098;51.680;5.134;2023-07-13T04:01:23;101558.38;;;13.35;100.00
70546;BME280;58098;51.680;5.134;2023-07-13T04:03:50;101569.19;;;13.42;100.00
70546;BME280;58098;51.680;5.134;2023-07-13T04:06:26;101569.31;;;13.40;100.00
70546;BME280;58098;51.680;5.134;2023-07-13T04:08:54;101553.22;;;13.34;100.00
70546;BME280;58098;51.680;5.134;2023-07-13T04:11:22;101569.53;;;13.48;100.00
70546;BME280;58098;51.680;5.134;2023-07-13T04:13:48;101567.19;;;13.45;100.00
70546;BME280;58098;51.680;5.134;2023-07-13T04:16:14;101573.13;;;13.47;100.00
70546;BME280;58098;51.680;5.134;2023-07-13T04:18:40;101572.75;;;13.52;100.00
70546;BME280;58098;51.680;5.134;2023-07-13T04:21:06;101572.28;;;13.58;100.00
70546;BME280;58098;51.680;5.134;2023-07-13T04:23:32;101589.78;;;13.68;100.00
70546;BME280;58098;51.680;5.134;2023-07-13T04:25:57;101586.78;;;13.73;100.00
70546;BME280;58098;51.680;5.134;2023-07-13T04:28:24;101576.66;;;13.79;100.00
70546;BME280;58098;51.680;5.134;2023-07-13T04:30:50;101582.81;;;13.89;100.00
70546;BME280;58098;51.680;5.134;2023-07-13T04:33:16;101593.97;;;14.03;100.00
70546;BME280;58098;51.680;5.134;2023-07-13T04:35:48;101592.03;;;14.16;100.00
70546;BME280;58098;51.680;5.134;2023-07-13T04:38:13;101580.31;;;14.20;100.00
70546;BME280;58098;51.680;5.134;2023-07-13T04:40:42;101586.25;;;14.33;100.00
70546;BME280;58098;51.680;5.134;2023-07-13T04:43:09;101583.81;;;14.41;100.00
70546;BME280;58098;51.680;5.134;2023-07-13T04:45:35;101578.56;;;14.41;100.00
70546;BME280;58098;51.680;5.134;2023-07-13T04:48:00;101594.97;;;14.54;100.00
70546;BME280;58098;51.680;5.134;2023-07-13T04:50:25;101601.13;;;14.64;100.00
70546;BME280;58098;51.680;5.134;2023-07-13T04:52:51;101582.59;;;14.66;100.00
70546;BME280;58098;51.680;5.134;2023-07-13T04:55:17;101598.03;;;14.80;100.00
70546;BME280;58098;51.680;5.134;2023-07-13T04:57:43;101577.41;;;14.75;100.00
70546;BME280;58098;51.680;5.134;2023-07-13T05:00:09;101595.88;;;14.94;100.00
70546;BME280;58098;51.680;5.134;2023-07-13T05:02:37;101591.34;;;14.96;100.00
70546;BME280;58098;51.680;5.134;2023-07-13T05:05:03;101590.81;;;15.02;100.00
70546;BME280;58098;51.680;5.134;2023-07-13T05:07:29;101590.31;;;15.08;100.00
70546;BME280;58098;51.680;5.134;2023-07-13T05:09:54;101594.78;;;15.17;100.00
70546;BME280;58098;51.680;5.134;2023-07-13T05:12:20;101590.66;;;15.25;100.00
70546;BME280;58098;51.680;5.134;2023-07-13T05:14:46;101602.78;;;15.46;100.00
70546;BME280;58098;51.680;5.134;2023-07-13T05:17:11;101605.88;;;15.61;100.00
70546;BME280;58098;51.680;5.134;2023-07-13T05:19:37;101603.69;;;15.66;100.00
70546;BME280;58098;51.680;5.134;2023-07-13T05:22:02;101610.50;;;15.88;100.00
70546;BME280;58098;51.680;5.134;2023-07-13T05:24:29;101609.84;;;15.95;100.00
70546;BME280;58098;51.680;5.134;2023-07-13T05:26:55;101612.31;;;16.06;100.00
70546;BME280;58098;51.680;5.134;2023-07-13T05:29:21;101614.97;;;16.06;100.00
70546;BME280;58098;51.680;5.134;2023-07-13T05:31:47;101597.50;;;15.96;100.00
70546;BME280;58098;51.680;5.134;2023-07-13T05:34:12;101604.56;;;16.05;100.00
70546;BME280;58098;51.680;5.134;2023-07-13T05:36:38;101606.66;;;16.11;100.00
70546;BME280;58098;51.680;5.134;2023-07-13T05:39:04;101607.47;;;16.02;100.00
70546;BME280;58098;51.680;5.134;2023-07-13T05:41:29;101630.22;;;16.12;100.00
70546;BME280;58098;51.680;5.134;2023-07-13T05:43:55;101624.69;;;16.15;100.00
70546;BME280;58098;51.680;5.134;2023-07-13T05:46:20;101622.47;;;16.20;100.00
70546;BME280;58098;51.680;5.134;2023-07-13T05:48:46;101636.34;;;16.32;100.00
70546;BME280;58098;51.680;5.134;2023-07-13T05:51:11;101633.28;;;16.46;100.00
70546;BME280;58098;51.680;5.134;2023-07-13T05:53:37;101624.94;;;16.50;100.00
70546;BME280;58098;51.680;5.134;2023-07-13T05:56:02;101629.56;;;16.58;100.00
70546;BME280;58098;51.680;5.134;2023-07-13T05:58:27;101611.09;;;16.48;100.00
70546;BME280;58098;51.680;5.134;2023-07-13T06:01:01;101641.88;;;16.58;100.00
70546;BME280;58098;51.680;5.134;2023-07-13T06:03:27;101654.25;;;16.57;100.00
70546;BME280;58098;51.680;5.134;2023-07-13T06:05:52;101643.38;;;16.50;100.00
70546;BME280;58098;51.680;5.134;2023-07-13T06:08:18;101652.16;;;16.61;100.00
70546;BME280;58098;51.680;5.134;2023-07-13T06:10:43;101660.63;;;16.64;100.00
70546;BME280;58098;51.680;5.134;2023-07-13T06:13:08;101649.41;;;16.62;100.00
70546;BME280;58098;51.680;5.134;2023-07-13T06:15:34;101661.31;;;16.76;100.00
70546;BME280;58098;51.680;5.134;2023-07-13T06:17:59;101661.03;;;16.79;100.00
70546;BME280;58098;51.680;5.134;2023-07-13T06:20:25;101667.22;;;16.97;100.00
70546;BME280;58098;51.680;5.134;2023-07-13T06:22:50;101665.41;;;17.07;100.00
70546;BME280;58098;51.680;5.134;2023-07-13T06:25:15;101662.75;;;17.16;100.00
70546;BME280;58098;51.680;5.134;2023-07-13T06:27:41;101662.66;;;17.36;100.00
70546;BME280;58098;51.680;5.134;2023-07-13T06:30:06;101662.34;;;17.48;100.00
70546;BME280;58098;51.680;5.134;2023-07-13T06:32:32;101668.47;;;17.58;100.00
70546;BME280;58098;51.680;5.134;2023-07-13T06:34:57;101652.41;;;17.42;100.00
70546;BME280;58098;51.680;5.134;2023-07-13T06:37:23;101658.19;;;17.46;100.00
70546;BME280;58098;51.680;5.134;2023-07-13T06:39:48;101680.03;;;17.38;100.00
70546;BME280;58098;51.680;5.134;2023-07-13T06:42:13;101659.91;;;17.37;100.00
70546;BME280;58098;51.680;5.134;2023-07-13T06:44:39;101666.78;;;17.48;100.00
70546;BME280;58098;51.680;5.134;2023-07-13T06:47:05;101667.34;;;17.61;100.00
70546;BME280;58098;51.680;5.134;2023-07-13T06:49:30;101674.47;;;17.78;100.00
70546;BME280;58098;51.680;5.134;2023-07-13T06:51:56;101675.50;;;17.95;100.00
70546;BME280;58098;51.680;5.134;2023-07-13T06:54:21;101689.03;;;18.09;100.00
70546;BME280;58098;51.680;5.134;2023-07-13T06:56:47;101678.63;;;18.08;100.00
70546;BME280;58098;51.680;5.134;2023-07-13T06:59:12;101679.22;;;18.19;100.00
70546;BME280;58098;51.680;5.134;2023-07-13T07:01:37;101696.00;;;18.45;100.00
70546;BME280;58098;51.680;5.134;2023-07-13T07:04:03;101694.81;;;18.75;100.00
70546;BME280;58098;51.680;5.134;2023-07-13T07:06:29;101693.22;;;18.82;100.00
70546;BME280;58098;51.680;5.134;2023-07-13T07:08:54;101689.44;;;18.67;100.00
70546;BME280;58098;51.680;5.134;2023-07-13T07:11:23;101695.84;;;18.82;100.00
70546;BME280;58098;51.680;5.134;2023-07-13T07:13:49;101680.16;;;18.81;100.00
70546;BME280;58098;51.680;5.134;2023-07-13T07:16:15;101677.91;;;18.94;100.00
70546;BME280;58098;51.680;5.134;2023-07-13T07:18:41;101676.91;;;19.13;100.00
70546;BME280;58098;51.680;5.134;2023-07-13T07:21:07;101682.28;;;19.29;100.00
70546;BME280;58098;51.680;5.134;2023-07-13T07:23:33;101677.09;;;19.37;100.00
70546;BME280;58098;51.680;5.134;2023-07-13T07:25:58;101678.31;;;19.33;100.00
70546;BME280;58098;51.680;5.134;2023-07-13T07:28:23;101693.66;;;19.21;100.00
70546;BME280;58098;51.680;5.134;2023-07-13T07:30:52;101678.97;;;19.27;100.00
70546;BME280;58098;51.680;5.134;2023-07-13T07:33:17;101686.66;;;19.63;100.00
70546;BME280;58098;51.680;5.134;2023-07-13T07:35:43;101695.19;;;19.91;100.00
70546;BME280;58098;51.680;5.134;2023-07-13T07:38:08;101695.91;;;20.09;100.00
70546;BME280;58098;51.680;5.134;2023-07-13T07:40:40;101701.78;;;20.29;100.00
70546;BME280;58098;51.680;5.134;2023-07-13T07:43:07;101710.63;;;20.70;100.00
70546;BME280;58098;51.680;5.134;2023-07-13T07:45:32;101695.00;;;20.26;100.00
70546;BME280;58098;51.680;5.134;2023-07-13T07:47:57;101693.84;;;20.29;100.00
70546;BME280;58098;51.680;5.134;2023-07-13T07:50:27;101706.44;;;20.43;100.00
70546;BME280;58098;51.680;5.134;2023-07-13T07:52:53;101705.25;;;20.37;100.00
70546;BME280;58098;51.680;5.134;2023-07-13T07:55:21;101695.34;;;20.48;100.00
70546;BME280;58098;51.680;5.134;2023-07-13T07:57:47;101704.31;;;20.95;100.00
70546;BME280;58098;51.680;5.134;2023-07-13T08:00:13;101712.28;;;21.11;100.00
70546;BME280;58098;51.680;5.134;2023-07-13T08:02:38;101709.44;;;21.29;100.00
70546;BME280;58098;51.680;5.134;2023-07-13T08:05:04;101702.47;;;21.28;100.00
70546;BME280;58098;51.680;5.134;2023-07-13T08:07:32;101695.44;;;21.43;100.00
70546;BME280;58098;51.680;5.134;2023-07-13T08:09:58;101696.69;;;21.16;100.00
70546;BME280;58098;51.680;5.134;2023-07-13T08:12:23;101698.63;;;21.38;100.00
70546;BME280;58098;51.680;5.134;2023-07-13T08:14:52;101706.06;;;21.43;100.00
70546;BME280;58098;51.680;5.134;2023-07-13T08:17:19;101698.63;;;21.30;100.00
70546;BME280;58098;51.680;5.134;2023-07-13T08:19:45;101688.56;;;21.64;100.00
70546;BME280;58098;51.680;5.134;2023-07-13T08:22:10;101687.03;;;21.78;100.00
70546;BME280;58098;51.680;5.134;2023-07-13T08:24:36;101690.47;;;21.95;100.00
70546;BME280;58098;51.680;5.134;2023-07-13T08:27:01;101688.00;;;22.16;100.00
70546;BME280;58098;51.680;5.134;2023-07-13T08:29:27;101681.53;;;22.41;100.00
70546;BME280;58098;51.680;5.134;2023-07-13T08:31:52;101695.00;;;22.17;100.00
70546;BME280;58098;51.680;5.134;2023-07-13T08:34:17;101685.72;;;22.58;100.00
70546;BME280;58098;51.680;5.134;2023-07-13T08:36:43;101687.38;;;22.14;100.00
70546;BME280;58098;51.680;5.134;2023-07-13T08:39:08;101695.34;;;22.14;100.00
70546;BME280;58098;51.680;5.134;2023-07-13T08:41:34;101705.06;;;21.99;100.00
70546;BME280;58098;51.680;5.134;2023-07-13T08:44:02;101690.03;;;22.14;100.00
70546;BME280;58098;51.680;5.134;2023-07-13T08:46:36;101705.97;;;22.14;100.00
70546;BME280;58098;51.680;5.134;2023-07-13T08:49:21;101706.88;;;22.29;100.00
70546;BME280;58098;51.680;5.134;2023-07-13T08:51:53;101705.41;;;22.26;100.00
70546;BME280;58098;51.680;5.134;2023-07-13T08:54:39;101701.09;;;22.48;100.00
70546;BME280;58098;51.680;5.134;2023-07-13T08:57:18;101699.28;;;22.49;100.00
70546;BME280;58098;51.680;5.134;2023-07-13T08:59:44;101687.94;;;22.77;100.00
70546;BME280;58098;51.680;5.134;2023-07-13T09:03:16;101687.91;;;22.55;100.00
70546;BME280;58098;51.680;5.134;2023-07-13T09:05:22;101693.22;;;22.09;100.00
70546;BME280;58098;51.680;5.134;2023-07-13T09:08:02;101691.09;;;22.05;100.00
70546;BME280;58098;51.680;5.134;2023-07-13T09:10:41;101668.44;;;22.09;100.00
70546;BME280;58098;51.680;5.134;2023-07-13T09:13:53;101691.59;;;22.76;100.00
70546;BME280;58098;51.680;5.134;2023-07-13T09:16:24;101689.38;;;22.57;100.00
70546;BME280;58098;51.680;5.134;2023-07-13T09:18:52;101689.72;;;22.62;100.00
70546;BME280;58098;51.680;5.134;2023-07-13T09:21:23;101698.81;;;22.68;100.00
70546;BME280;58098;51.680;5.134;2023-07-13T09:23:53;101704.59;;;22.49;100.00
70546;BME280;58098;51.680;5.134;2023-07-13T09:26:22;101698.38;;;22.33;100.00
70546;BME280;58098;51.680;5.134;2023-07-13T09:28:51;101700.09;;;22.49;100.00
70546;BME280;58098;51.680;5.134;2023-07-13T09:31:39;101705.91;;;22.75;100.00
70546;BME280;58098;51.680;5.134;2023-07-13T09:34:11;101688.53;;;22.65;100.00
70546;BME280;58098;51.680;5.134;2023-07-13T09:36:38;101681.03;;;22.83;100.00
70546;BME280;58098;51.680;5.134;2023-07-13T09:39:27;101694.31;;;23.20;100.00
70546;BME280;58098;51.680;5.134;2023-07-13T09:41:58;101708.78;;;22.88;100.00
70546;BME280;58098;51.680;5.134;2023-07-13T09:44:29;101704.84;;;22.84;100.00
70546;BME280;58098;51.680;5.134;2023-07-13T09:46:56;101697.78;;;22.91;100.00
70546;BME280;58098;51.680;5.134;2023-07-13T09:49:27;101696.47;;;23.39;100.00
70546;BME280;58098;51.680;5.134;2023-07-13T09:52:04;101697.88;;;24.15;100.00
70546;BME280;58098;51.680;5.134;2023-07-13T09:54:33;101705.78;;;24.44;100.00
70546;BME280;58098;51.680;5.134;2023-07-13T09:57:00;101692.69;;;24.49;100.00
70546;BME280;58098;51.680;5.134;2023-07-13T09:59:34;101700.69;;;24.70;100.00
70546;BME280;58098;51.680;5.134;2023-07-13T10:01:59;101695.44;;;24.77;100.00
70546;BME280;58098;51.680;5.134;2023-07-13T10:04:31;101703.81;;;24.32;100.00
70546;BME280;58098;51.680;5.134;2023-07-13T10:07:08;101711.59;;;23.97;100.00
70546;BME280;58098;51.680;5.134;2023-07-13T10:09:34;101708.59;;;23.86;100.00
70546;BME280;58098;51.680;5.134;2023-07-13T10:11:59;101703.91;;;23.73;100.00
70546;BME280;58098;51.680;5.134;2023-07-13T10:14:25;101699.16;;;23.54;100.00
70546;BME280;58098;51.680;5.134;2023-07-13T10:17:01;101721.19;;;23.33;100.00
70546;BME280;58098;51.680;5.134;2023-07-13T10:19:31;101724.00;;;23.32;100.00
70546;BME280;58098;51.680;5.134;2023-07-13T10:22:16;101721.78;;;23.43;100.00
70546;BME280;58098;51.680;5.134;2023-07-13T10:24:46;101724.78;;;23.03;100.00
70546;BME280;58098;51.680;5.134;2023-07-13T10:27:19;101718.50;;;22.81;100.00
70546;BME280;58098;51.680;5.134;2023-07-13T10:29:55;101741.69;;;22.19;100.00
70546;BME280;58098;51.680;5.134;2023-07-13T10:32:25;101741.81;;;21.16;100.00
70546;BME280;58098;51.680;5.134;2023-07-13T10:34:50;101732.81;;;20.61;100.00
70546;BME280;58098;51.680;5.134;2023-07-13T10:37:51;101742.78;;;20.91;100.00
70546;BME280;58098;51.680;5.134;2023-07-13T10:40:23;101738.50;;;21.14;100.00
70546;BME280;58098;51.680;5.134;2023-07-13T10:42:54;101727.44;;;21.57;100.00
70546;BME280;58098;51.680;5.134;2023-07-13T10:45:23;101700.75;;;21.43;100.00
70546;BME280;58098;51.680;5.134;2023-07-13T10:47:50;101759.72;;;21.22;100.00
70546;BME280;58098;51.680;5.134;2023-07-13T10:50:23;101754.38;;;20.66;100.00
70546;BME280;58098;51.680;5.134;2023-07-13T10:52:54;101762.47;;;20.06;100.00
70546;BME280;58098;51.680;5.134;2023-07-13T11:03:20;101732.41;;;19.48;100.00
70546;BME280;58098;51.680;5.134;2023-07-13T11:05:51;101762.72;;;19.87;100.00
70546;BME280;58098;51.680;5.134;2023-07-13T11:10:58;101763.31;;;20.65;100.00
70546;BME280;58098;51.680;5.134;2023-07-13T11:13:39;101760.41;;;21.08;100.00
70546;BME280;58098;51.680;5.134;2023-07-13T11:21:22;101758.41;;;21.81;100.00
70546;BME280;58098;51.680;5.134;2023-07-13T11:23:53;101744.72;;;22.08;100.00
70546;BME280;58098;51.680;5.134;2023-07-13T11:26:40;101765.00;;;22.40;100.00
70546;BME280;58098;51.680;5.134;2023-07-13T11:29:24;101763.81;;;22.43;100.00
70546;BME280;58098;51.680;5.134;2023-07-13T11:31:53;101750.44;;;22.28;100.00
70546;BME280;58098;51.680;5.134;2023-07-13T11:34:39;101766.47;;;22.73;100.00
70546;BME280;58098;51.680;5.134;2023-07-13T11:37:11;101759.59;;;23.02;100.00
70546;BME280;58098;51.680;5.134;2023-07-13T11:39:41;101752.00;;;23.36;100.00
70546;BME280;58098;51.680;5.134;2023-07-13T11:42:16;101737.56;;;23.59;100.00
70546;BME280;58098;51.680;5.134;2023-07-13T11:44:45;101741.81;;;23.17;100.00
70546;BME280;58098;51.680;5.134;2023-07-13T11:47:20;101748.56;;;22.90;100.00
70546;BME280;58098;51.680;5.134;2023-07-13T11:49:53;101754.72;;;23.05;100.00
70546;BME280;58098;51.680;5.134;2023-07-13T11:52:32;101747.63;;;23.35;100.00
70546;BME280;58098;51.680;5.134;2023-07-13T11:55:00;101754.97;;;23.33;100.00
70546;BME280;58098;51.680;5.134;2023-07-13T11:57:31;101736.31;;;23.33;100.00
70546;BME280;58098;51.680;5.134;2023-07-13T12:00:01;101761.84;;;23.79;100.00
70546;BME280;58098;51.680;5.134;2023-07-13T12:02:36;101752.78;;;23.95;100.00
70546;BME280;58098;51.680;5.134;2023-07-13T12:05:04;101737.25;;;23.98;100.00
70546;BME280;58098;51.680;5.134;2023-07-13T12:07:32;101750.88;;;24.03;100.00
70546;BME280;58098;51.680;5.134;2023-07-13T12:10:26;101750.06;;;24.39;100.00
70546;BME280;58098;51.680;5.134;2023-07-13T12:13:01;101743.97;;;24.45;100.00
70546;BME280;58098;51.680;5.134;2023-07-13T12:15:38;101747.22;;;24.40;100.00
70546;BME280;58098;51.680;5.134;2023-07-13T12:20:39;101759.84;;;24.32;100.00
70546;BME280;58098;51.680;5.134;2023-07-13T12:23:06;101757.97;;;23.96;100.00
70546;BME280;58098;51.680;5.134;2023-07-13T12:25:39;101743.88;;;24.17;100.00
70546;BME280;58098;51.680;5.134;2023-07-13T12:28:20;101766.88;;;24.75;100.00
70546;BME280;58098;51.680;5.134;2023-07-13T12:30:48;101744.03;;;25.42;100.00
70546;BME280;58098;51.680;5.134;2023-07-13T12:33:13;101743.34;;;26.09;100.00
70546;BME280;58098;51.680;5.134;2023-07-13T12:35:49;101747.78;;;26.23;100.00
70546;BME280;58098;51.680;5.134;2023-07-13T12:38:17;101748.66;;;26.50;100.00
70546;BME280;58098;51.680;5.134;2023-07-13T12:40:49;101753.91;;;26.91;100.00
70546;BME280;58098;51.680;5.134;2023-07-13T12:43:16;101759.88;;;26.79;83.18
70546;BME280;58098;51.680;5.134;2023-07-13T12:48:21;101747.69;;;27.49;82.12
70546;BME280;58098;51.680;5.134;2023-07-13T12:50:48;101752.91;;;27.95;100.00
70546;BME280;58098;51.680;5.134;2023-07-13T12:53:23;101747.16;;;27.91;72.01
70546;BME280;58098;51.680;5.134;2023-07-13T12:55:55;101753.78;;;27.82;95.84
70546;BME280;58098;51.680;5.134;2023-07-13T12:58:28;101780.56;;;27.95;88.16
70546;BME280;58098;51.680;5.134;2023-07-13T13:00:55;101767.69;;;27.46;90.31
70546;BME280;58098;51.680;5.134;2023-07-13T13:05:49;101777.53;;;25.73;89.94
70546;BME280;58098;51.680;5.134;2023-07-13T13:08:21;101769.03;;;25.28;96.31
70546;BME280;58098;51.680;5.134;2023-07-13T13:10:46;101772.06;;;25.25;100.00
70546;BME280;58098;51.680;5.134;2023-07-13T13:13:12;101782.38;;;25.28;100.00